Time;durP1;ratioP1;P1;durP2;ratioP2;P2;SDS_P1;SDS_P2;PMS_P1;PMS_P2;Temp;Humidity;BMP_temperature;BMP_pressure;BME280_temperature;BME280_humidity;BME280_pressure;Samples;Min_cycle;Max_cycle;Signal;HPM_P1;HPM_P2
2023/01/19 00:00:20;;;;;;;18.10;9.13;;;;;;;-2.27;64.58;98722.59;10390469;28;20481;-66
2023/01/19 00:05:22;;;;;;;16.45;9.93;;;;;;;-2.22;64.49;98728.41;10388467;28;20508;-66
2023/01/19 00:10:23;;;;;;;15.68;10.35;;;;;;;-2.27;64.58;98737.94;10385703;28;20057;-66
2023/01/19 00:15:25;;;;;;;15.65;9.63;;;;;;;-2.29;64.73;98737.16;10389380;28;20045;-67
2023/01/19 00:20:26;;;;;;;14.60;9.00;;;;;;;-2.27;64.74;98743.06;10388941;28;20252;-66
2023/01/19 00:25:28;;;;;;;13.57;8.88;;;;;;;-2.22;64.83;98733.53;10388712;28;20046;-66
2023/01/19 00:30:30;;;;;;;16.65;8.73;;;;;;;-2.18;64.55;98740.25;10390196;28;20552;-66
2023/01/19 00:35:32;;;;;;;16.73;8.85;;;;;;;-2.14;64.85;98752.06;10386937;28;20424;-67
2023/01/19 00:40:34;;;;;;;20.25;9.35;;;;;;;-2.11;64.57;98752.00;10388894;28;20526;-66
2023/01/19 00:45:35;;;;;;;17.83;9.10;;;;;;;-2.14;64.66;98762.31;10385811;28;20050;-67
2023/01/19 00:50:37;;;;;;;18.23;11.05;;;;;;;-2.24;64.59;98766.00;10389059;28;20120;-66
2023/01/19 00:55:39;;;;;;;16.42;9.70;;;;;;;-2.27;65.10;98763.56;10387660;28;20069;-66
2023/01/19 01:00:40;;;;;;;14.60;9.00;;;;;;;-2.14;65.03;98764.88;10387956;28;20057;-66
2023/01/19 01:05:42;;;;;;;15.60;8.85;;;;;;;-2.13;65.07;98776.81;10381335;28;20150;-66
2023/01/19 01:10:44;;;;;;;14.50;8.85;;;;;;;-2.09;65.49;98782.69;10388037;28;20045;-66
2023/01/19 01:15:48;;;;;;;15.48;8.93;;;;;;;-1.77;65.18;98794.59;10385571;28;20666;-66
2023/01/19 01:20:50;;;;;;;17.23;8.50;;;;;;;-1.66;65.42;98790.03;10388719;28;20398;-66
2023/01/19 01:25:52;;;;;;;12.98;8.32;;;;;;;-1.45;65.09;98786.84;10388121;28;20134;-66
2023/01/19 01:30:55;;;;;;;14.10;8.55;;;;;;;-1.35;64.99;98783.13;10388488;28;20375;-66
2023/01/19 01:35:56;;;;;;;17.77;8.50;;;;;;;-1.24;64.89;98788.75;10387508;28;20142;-66
2023/01/19 01:40:58;;;;;;;16.25;8.63;;;;;;;-1.06;64.68;98777.09;10389141;28;20045;-66
2023/01/19 01:46:00;;;;;;;20.13;8.07;;;;;;;-0.86;64.39;98770.41;10386709;28;20625;-66
2023/01/19 01:51:22;;;;;;;14.88;8.77;;;;;;;-0.78;64.34;98765.88;10383771;28;20041;-66
2023/01/19 01:56:31;;;;;;;13.90;8.32;;;;;;;-0.72;64.37;98767.41;10386794;28;20501;-66
2023/01/19 02:17:34;;;;;;;15.93;8.82;;;;;;;-0.85;64.50;98754.13;10385178;28;20069;-66
2023/01/19 02:22:44;;;;;;;11.35;8.10;;;;;;;-0.93;64.84;98763.81;10384565;28;20481;-66
2023/01/19 02:27:47;;;;;;;14.40;8.30;;;;;;;-1.01;64.83;98763.22;10384729;28;20045;-66
2023/01/19 02:32:48;;;;;;;14.30;8.07;;;;;;;-1.06;65.34;98765.06;10385077;28;20041;-66
2023/01/19 02:37:52;;;;;;;12.90;8.65;;;;;;;-1.06;65.16;98759.94;10384976;28;21565;-67
2023/01/19 02:42:59;;;;;;;13.05;8.77;;;;;;;-1.08;65.33;98764.28;10385898;28;20053;-66
2023/01/19 02:48:03;;;;;;;13.00;8.27;;;;;;;-1.05;65.15;98771.91;10382321;28;20095;-67
2023/01/19 02:53:27;;;;;;;12.07;8.20;;;;;;;-1.10;65.67;98758.38;10382755;28;20038;-66
2023/01/19 02:58:51;;;;;;;14.82;8.68;;;;;;;-1.10;65.43;98753.22;10382920;28;20049;-66
2023/01/19 03:03:59;;;;;;;16.45;8.82;;;;;;;-1.11;65.29;98754.13;10389555;28;20057;-66
2023/01/19 03:09:10;;;;;;;12.65;7.75;;;;;;;-1.19;65.48;98754.34;10389365;28;20057;-66
2023/01/19 03:14:17;;;;;;;16.20;8.40;;;;;;;-1.18;65.70;98737.25;10392175;28;20060;-66
2023/01/19 03:19:30;;;;;;;13.70;8.15;;;;;;;-1.16;66.07;98745.72;10391856;28;20064;-66
2023/01/19 03:24:35;;;;;;;13.45;8.05;;;;;;;-1.18;65.95;98742.38;10390647;28;20518;-66
2023/01/19 03:29:45;;;;;;;12.82;8.25;;;;;;;-1.16;66.16;98743.16;10390466;28;20505;-67
2023/01/19 03:34:48;;;;;;;13.90;8.18;;;;;;;-1.09;65.75;98744.66;10388471;28;21778;-67
2023/01/19 03:39:50;;;;;;;13.93;8.50;;;;;;;-1.10;65.60;98755.81;10390310;28;20297;-66
2023/01/19 03:44:55;;;;;;;12.88;8.35;;;;;;;-1.12;65.73;98751.63;10389767;28;20512;-66
2023/01/19 03:49:57;;;;;;;14.52;7.90;;;;;;;-1.10;65.63;98752.41;10390413;28;20367;-66
2023/01/19 03:55:00;;;;;;;13.27;7.88;;;;;;;-1.15;65.64;98752.56;10391140;28;20465;-66
2023/01/19 04:00:02;;;;;;;15.45;9.13;;;;;;;-1.19;65.88;98766.38;10389301;28;20636;-66
2023/01/19 04:05:04;;;;;;;14.90;8.18;;;;;;;-1.18;66.03;98766.31;10385296;28;20140;-67
2023/01/19 04:10:11;;;;;;;14.57;8.50;;;;;;;-0.94;65.79;98767.25;10385150;28;20486;-66
2023/01/19 04:15:14;;;;;;;13.85;8.07;;;;;;;-0.78;65.44;98768.44;10375723;28;20490;-66
2023/01/19 04:20:15;;;;;;;14.77;8.48;;;;;;;-0.63;65.21;98772.22;10382691;28;20316;-66
2023/01/19 04:25:17;;;;;;;15.10;7.82;;;;;;;-0.58;65.33;98766.06;10382931;28;20517;-67
2023/01/19 04:30:19;;;;;;;14.23;8.07;;;;;;;-0.44;64.98;98768.16;10383887;28;20049;-66
2023/01/19 04:35:21;;;;;;;12.43;8.02;;;;;;;-0.46;64.70;98765.66;10382436;28;20050;-66
2023/01/19 04:40:23;;;;;;;14.02;8.43;;;;;;;-0.52;64.91;98757.31;10390863;28;20053;-66
2023/01/19 04:45:25;;;;;;;14.63;7.93;;;;;;;-0.55;64.99;98765.09;10389716;28;20045;-66
2023/01/19 04:50:26;;;;;;;12.10;7.80;;;;;;;-0.51;64.93;98758.97;10390108;28;20046;-68
2023/01/19 04:55:28;;;;;;;12.80;8.02;;;;;;;-0.46;64.83;98757.94;10388608;28;20049;-66
2023/01/19 05:00:30;;;;;;;11.68;7.70;;;;;;;-0.45;65.19;98764.75;10389409;28;20065;-66
2023/01/19 05:05:35;;;;;;;13.23;8.70;;;;;;;-0.51;65.26;98775.22;10387903;28;20061;-66
2023/01/19 05:10:36;;;;;;;10.68;7.45;;;;;;;-0.49;65.04;98777.75;10381527;28;20042;-66
2023/01/19 05:15:38;;;;;;;19.13;10.75;;;;;;;-0.53;65.07;98773.59;10388675;28;20128;-66
2023/01/19 05:20:40;;;;;;;45.60;23.25;;;;;;;-0.58;65.17;98784.06;10389626;28;20049;-66
2023/01/19 05:25:43;;;;;;;12.80;7.97;;;;;;;-0.70;65.42;98781.88;10387444;28;20058;-66
2023/01/19 05:30:44;;;;;;;13.02;7.70;;;;;;;-0.72;65.25;98785.38;10387153;28;20395;-66
2023/01/19 05:35:50;;;;;;;11.25;8.10;;;;;;;-0.84;65.77;98786.59;10386973;28;20502;-66
2023/01/19 05:40:58;;;;;;;13.07;8.90;;;;;;;-0.86;65.78;98785.81;10387493;28;20524;-66
2023/01/19 05:45:59;;;;;;;12.27;7.85;;;;;;;-0.90;65.67;98797.06;10381398;28;20819;-67
2023/01/19 05:51:01;;;;;;;12.00;8.00;;;;;;;-0.92;65.80;98791.13;10386319;28;20045;-67
2023/01/19 05:56:07;;;;;;;11.52;7.47;;;;;;;-0.88;65.87;98790.16;10380426;28;20232;-66
2023/01/19 06:01:09;;;;;;;11.38;7.35;;;;;;;-0.85;65.77;98791.78;10383678;28;20695;-67
2023/01/19 06:06:12;;;;;;;12.85;8.00;;;;;;;-0.87;65.95;98791.84;10374019;28;20051;-66
2023/01/19 06:11:14;;;;;;;11.18;7.93;;;;;;;-0.71;65.94;98793.03;10379477;28;20041;-67
2023/01/19 06:16:15;;;;;;;14.65;7.97;;;;;;;-0.56;65.63;98797.69;10376886;28;20410;-67
2023/01/19 06:21:17;;;;;;;16.60;10.13;;;;;;;-0.38;65.31;98804.75;10383301;28;20053;-66
2023/01/19 06:26:19;;;;;;;15.43;9.32;;;;;;;-0.24;65.16;98813.72;10377467;28;20061;-67
2023/01/19 06:31:21;;;;;;;11.48;7.88;;;;;;;-0.14;64.81;98802.22;10382908;28;20045;-67
2023/01/19 06:36:22;;;;;;;12.68;8.20;;;;;;;-0.08;64.66;98799.44;10377708;28;20057;-66
2023/01/19 06:41:25;;;;;;;14.55;8.68;;;;;;;-0.00;64.54;98805.16;10383991;28;20053;-66
2023/01/19 06:46:27;;;;;;;12.73;7.82;;;;;;;0.10;64.18;98793.66;10377611;28;20405;-66
2023/01/19 06:51:29;;;;;;;12.82;8.20;;;;;;;0.10;64.02;98794.50;10382800;28;20045;-66
2023/01/19 06:56:31;;;;;;;14.50;9.10;;;;;;;0.12;63.90;98804.72;10375742;28;20318;-67
2023/01/19 07:01:32;;;;;;;14.65;8.98;;;;;;;0.09;63.88;98812.56;10380672;28;20061;-67
2023/01/19 07:06:34;;;;;;;12.93;8.93;;;;;;;-0.02;63.93;98822.34;10375249;28;20045;-66
2023/01/19 07:11:36;;;;;;;12.77;8.88;;;;;;;0.05;63.81;98821.28;10379642;28;20455;-66
2023/01/19 07:16:37;;;;;;;14.13;8.98;;;;;;;0.02;63.73;98823.94;10381977;28;20448;-65
2023/01/19 07:21:39;;;;;;;13.68;9.02;;;;;;;-0.01;63.67;98824.06;10383634;28;20449;-66
2023/01/19 07:26:41;;;;;;;12.25;8.18;;;;;;;-0.05;63.64;98830.19;10382764;28;20056;-66
2023/01/19 07:31:42;;;;;;;12.00;8.23;;;;;;;-0.03;63.69;98833.56;10384211;28;20141;-66
2023/01/19 07:36:44;;;;;;;15.00;9.82;;;;;;;-0.08;63.40;98838.84;10383182;28;20456;-65
2023/01/19 07:41:49;;;;;;;15.23;8.85;;;;;;;0.11;63.54;98845.03;10384096;28;20072;-65
2023/01/19 07:46:51;;;;;;;14.00;8.85;;;;;;;0.32;63.28;98846.00;10383879;28;20050;-65
2023/01/19 07:51:55;;;;;;;13.80;8.02;;;;;;;0.51;62.77;98847.84;10382847;28;20057;-65
2023/01/19 07:56:56;;;;;;;13.57;8.40;;;;;;;0.50;62.65;98853.06;10384417;28;20045;-65
2023/01/19 08:01:58;;;;;;;14.07;9.25;;;;;;;0.70;62.32;98855.75;10383612;28;20053;-66
2023/01/19 08:07:00;;;;;;;10.98;7.57;;;;;;;0.78;62.04;98853.72;10381289;28;20552;-66
2023/01/19 08:12:02;;;;;;;14.68;7.75;;;;;;;0.67;61.71;98863.56;10384797;28;20045;-65
2023/01/19 08:17:04;;;;;;;12.52;7.78;;;;;;;0.97;61.59;98864.16;10390227;28;20055;-66
2023/01/19 08:22:06;;;;;;;9.30;6.20;;;;;;;1.07;61.22;98868.91;10390622;28;20068;-66
2023/01/19 08:27:08;;;;;;;10.95;6.63;;;;;;;0.94;61.33;98882.28;10390616;28;20052;-65
2023/01/19 08:32:10;;;;;;;11.98;6.97;;;;;;;0.93;61.83;98883.19;10390252;28;20049;-65
2023/01/19 08:37:12;;;;;;;13.32;8.02;;;;;;;0.67;62.90;98888.47;10386616;28;20084;-66
2023/01/19 08:42:13;;;;;;;12.88;8.23;;;;;;;0.74;63.39;98898.47;10387831;28;20045;-65
2023/01/19 08:47:16;;;;;;;12.80;8.55;;;;;;;0.71;63.95;98908.03;10389020;28;20053;-65
2023/01/19 08:52:17;;;;;;;14.50;8.73;;;;;;;0.51;64.99;98908.75;10388427;28;20041;-65
2023/01/19 08:57:19;;;;;;;13.13;7.72;;;;;;;0.64;64.93;98904.84;10388051;28;20045;-66
2023/01/19 09:02:21;;;;;;;13.40;7.95;;;;;;;0.62;65.13;98909.22;10385707;28;20060;-65
2023/01/19 09:07:22;;;;;;;11.25;7.53;;;;;;;0.56;65.70;98896.56;10387419;28;20061;-65
2023/01/19 09:12:24;;;;;;;12.77;7.55;;;;;;;0.78;65.41;98906.91;10385023;28;20075;-66
2023/01/19 09:17:26;;;;;;;12.07;7.18;;;;;;;0.90;65.16;98897.00;10387117;28;20531;-65
2023/01/19 09:22:27;;;;;;;11.13;6.80;;;;;;;0.93;65.21;98907.19;10386696;28;20053;-65
2023/01/19 09:27:29;;;;;;;12.85;6.82;;;;;;;1.18;64.71;98900.22;10387535;28;20064;-64
2023/01/19 09:32:31;;;;;;;10.63;6.80;;;;;;;1.47;64.17;98906.81;10387631;28;20057;-65
2023/01/19 09:37:33;;;;;;;10.70;6.60;;;;;;;1.72;63.64;98911.84;10383357;28;20054;-66
2023/01/19 09:42:42;;;;;;;9.75;6.50;;;;;;;1.91;63.12;98915.38;10387566;28;20756;-65
2023/01/19 09:47:47;;;;;;;10.70;6.68;;;;;;;1.68;63.62;98915.44;10388385;28;20307;-66
2023/01/19 09:52:59;;;;;;;10.43;6.93;;;;;;;1.72;63.18;98924.72;10388520;28;20042;-64
2023/01/19 09:58:08;;;;;;;13.40;7.47;;;;;;;1.63;63.50;98932.81;10388536;28;20053;-65
2023/01/19 10:03:15;;;;;;;16.10;8.95;;;;;;;1.62;63.92;98929.41;10387979;28;20084;-65
2023/01/19 10:08:38;;;;;;;15.95;9.07;;;;;;;1.57;64.15;98930.47;10387286;28;20049;-66
2023/01/19 10:13:51;;;;;;;20.83;10.48;;;;;;;1.59;64.51;98936.41;10384399;28;20057;-65
2023/01/19 10:19:00;;;;;;;12.93;8.00;;;;;;;1.71;64.26;98936.78;10369841;28;20103;-65
2023/01/19 10:24:17;;;;;;;12.18;7.97;;;;;;;1.40;65.42;98933.69;10386320;28;20045;-65
2023/01/19 10:29:25;;;;;;;11.77;7.93;;;;;;;1.39;65.39;98929.47;10385287;28;20285;-65
2023/01/19 10:34:26;;;;;;;11.23;8.15;;;;;;;1.52;65.44;98932.41;10385263;28;20347;-65
2023/01/19 10:39:28;;;;;;;14.30;8.02;;;;;;;1.77;64.71;98938.25;10386337;28;20059;-65
2023/01/19 10:44:36;;;;;;;14.25;8.75;;;;;;;1.50;65.88;98944.50;10384099;28;20114;-65
2023/01/19 10:49:43;;;;;;;12.85;7.82;;;;;;;1.68;65.47;98941.22;10384721;28;20556;-65
2023/01/19 10:54:47;;;;;;;13.82;8.45;;;;;;;1.75;65.08;98937.47;10385298;28;20053;-65
2023/01/19 10:59:50;;;;;;;10.43;7.07;;;;;;;1.76;65.06;98944.31;10383291;28;20390;-65
2023/01/19 11:04:57;;;;;;;11.30;7.32;;;;;;;1.94;64.79;98938.44;10384281;28;20140;-65
2023/01/19 11:10:14;;;;;;;11.27;6.93;;;;;;;1.91;64.73;98941.16;10384057;28;20049;-65
2023/01/19 11:15:39;;;;;;;10.00;6.50;;;;;;;1.76;65.07;98936.59;10383267;28;20053;-65
2023/01/19 11:20:51;;;;;;;9.95;5.70;;;;;;;1.84;64.52;98942.28;10385049;28;20053;-65
2023/01/19 11:25:56;;;;;;;11.68;5.55;;;;;;;2.07;64.33;98937.03;10384253;28;20053;-65
2023/01/19 11:30:58;;;;;;;8.57;5.50;;;;;;;2.06;63.90;98943.06;10376786;28;20054;-65
2023/01/19 11:36:14;;;;;;;7.28;4.90;;;;;;;1.99;63.91;98929.59;10369169;28;20103;-65
2023/01/19 11:41:17;;;;;;;10.38;5.65;;;;;;;1.94;63.80;98941.84;10383599;28;20057;-65
2023/01/19 11:46:20;;;;;;;10.13;6.05;;;;;;;2.10;63.78;98931.72;10380183;28;20041;-65
2023/01/19 11:51:24;;;;;;;10.50;6.00;;;;;;;2.11;63.63;98936.00;10381669;28;20053;-65
2023/01/19 11:56:28;;;;;;;9.07;6.40;;;;;;;2.01;63.89;98937.28;10385644;28;20045;-65
2023/01/19 12:01:33;;;;;;;10.93;6.20;;;;;;;1.71;64.43;98939.34;10390412;28;20457;-65
2023/01/19 12:06:40;;;;;;;9.93;6.40;;;;;;;1.82;64.15;98936.34;10393305;28;20042;-65
2023/01/19 12:12:00;;;;;;;10.05;5.97;;;;;;;1.98;63.64;98942.56;10392856;28;20060;-66
2023/01/19 12:17:04;;;;;;;11.32;6.57;;;;;;;2.07;63.58;98942.19;10388197;28;20049;-66
2023/01/19 12:22:12;;;;;;;10.30;6.18;;;;;;;1.99;63.65;98939.91;10383945;28;20647;-66
2023/01/19 12:27:37;;;;;;;11.05;6.50;;;;;;;2.13;63.56;98934.22;10383206;28;20048;-65
2023/01/19 12:32:38;;;;;;;11.77;6.80;;;;;;;2.11;63.82;98930.84;10382861;28;20489;-65
2023/01/19 12:37:42;;;;;;;11.57;6.35;;;;;;;2.18;63.79;98934.84;10378597;28;20273;-65
2023/01/19 12:42:55;;;;;;;11.57;6.22;;;;;;;2.03;63.96;98932.91;10383581;28;20252;-66
2023/01/19 12:47:58;;;;;;;13.52;6.72;;;;;;;1.89;64.44;98936.03;10384357;28;20823;-66
2023/01/19 12:53:01;;;;;;;10.52;6.60;;;;;;;1.83;64.53;98931.13;10381639;28;20350;-65
2023/01/19 12:58:16;;;;;;;11.38;6.63;;;;;;;2.21;63.96;98932.97;10385850;28;20427;-66
2023/01/19 13:03:42;;;;;;;10.85;7.10;;;;;;;2.30;63.03;98938.66;10380486;28;20096;-65
2023/01/19 13:08:58;;;;;;;11.30;7.55;;;;;;;2.15;63.66;98942.72;10378089;28;20042;-65
2023/01/19 13:14:00;;;;;;;13.88;7.13;;;;;;;2.23;63.82;98943.22;10376711;28;20049;-65
2023/01/19 13:19:05;;;;;;;10.18;6.97;;;;;;;2.32;63.64;98940.25;10377580;28;20910;-66
2023/01/19 13:24:09;;;;;;;10.55;7.18;;;;;;;2.29;63.57;98942.97;10374811;28;20420;-66
2023/01/19 13:29:32;;;;;;;16.17;8.30;;;;;;;2.15;63.93;98945.28;10376374;28;20045;-65
2023/01/19 13:34:42;;;;;;;13.98;7.85;;;;;;;2.18;63.81;98947.72;10376781;28;20493;-65
2023/01/19 13:39:48;;;;;;;16.30;9.77;;;;;;;2.34;63.82;98950.53;10412770;28;20049;-66
2023/01/19 13:44:54;;;;;;;16.42;8.82;;;;;;;2.39;63.54;98952.00;10376408;28;20188;-65
2023/01/19 13:49:56;;;;;;;15.93;9.43;;;;;;;2.40;63.58;98951.09;10379403;28;20042;-66
2023/01/19 13:55:01;;;;;;;16.77;9.70;;;;;;;2.32;63.28;98953.16;10373097;28;20049;-66
2023/01/19 14:00:13;;;;;;;14.93;7.82;;;;;;;2.41;62.94;98960.53;10377258;28;20099;-66
2023/01/19 14:05:21;;;;;;;;;;;;;;;2.17;63.00;98958.97;10373277;28;20045;-66
2023/01/19 14:10:23;;;;;;;16.30;9.55;;;;;;;2.39;62.87;98958.91;10377903;28;19929;-66
2023/01/19 14:15:26;;;;;;;16.92;7.53;;;;;;;2.53;62.56;98961.72;10370188;28;20049;-65
2023/01/19 14:20:29;;;;;;;14.27;7.22;;;;;;;2.73;62.15;98961.72;10374483;28;20049;-65
2023/01/19 14:25:37;;;;;;;13.95;7.32;;;;;;;2.70;61.84;98969.59;10371563;28;20646;-66
2023/01/19 14:30:39;;;;;;;12.98;7.75;;;;;;;2.64;61.97;98968.09;10376988;28;20049;-66
2023/01/19 14:35:42;;;;;;;10.23;5.90;;;;;;;2.63;61.83;98975.91;10374483;28;20045;-65
2023/01/19 14:40:44;;;;;;;10.95;5.70;;;;;;;2.61;61.79;98977.72;10379493;28;20060;-66
2023/01/19 14:45:46;;;;;;;13.50;5.68;;;;;;;2.53;61.61;98979.78;10379492;28;20661;-66
2023/01/19 14:50:52;;;;;;;7.80;5.00;;;;;;;2.57;61.56;98987.34;10376016;28;20068;-66
2023/01/19 14:56:05;;;;;;;10.25;5.70;;;;;;;2.60;61.59;98987.19;10373074;28;20050;-66
2023/01/19 15:01:07;;;;;;;10.43;5.70;;;;;;;2.81;61.08;98988.03;10375986;28;20046;-66
2023/01/19 15:06:13;;;;;;;11.82;5.47;;;;;;;3.07;60.46;98994.66;10373068;28;20069;-66
2023/01/19 15:11:23;;;;;;;8.55;4.75;;;;;;;3.24;60.17;98994.72;10374186;28;20056;-65
2023/01/19 15:16:27;;;;;;;12.02;4.82;;;;;;;3.33;59.61;98992.59;10370959;28;20049;-65
2023/01/19 15:21:29;;;;;;;19.27;12.70;;;;;;;3.26;59.73;99003.25;10376188;28;20056;-65
2023/01/19 15:26:30;;;;;;;10.27;5.47;;;;;;;3.29;59.44;99005.72;10371327;28;20038;-65
2023/01/19 15:31:32;;;;;;;9.73;4.97;;;;;;;3.21;59.26;99008.66;10372484;28;20042;-66
2023/01/19 15:36:33;;;;;;;7.68;4.70;;;;;;;3.14;59.41;99012.41;10369904;28;20044;-65
2023/01/19 15:41:38;;;;;;;9.38;4.63;;;;;;;3.09;59.52;99016.91;10374591;28;20528;-65
2023/01/19 15:46:40;;;;;;;8.32;4.68;;;;;;;2.91;59.84;99018.56;10370628;28;20069;-65
2023/01/19 15:51:41;;;;;;;8.27;4.85;;;;;;;2.91;59.77;99025.47;10373951;28;20080;-66
2023/01/19 15:56:43;;;;;;;9.50;4.47;;;;;;;2.76;59.91;99026.97;10369916;28;20057;-65
2023/01/19 16:01:45;;;;;;;8.55;4.30;;;;;;;2.69;60.06;99029.88;10375387;28;20056;-66
2023/01/19 16:06:48;;;;;;;11.95;4.93;;;;;;;2.57;60.31;99028.66;10367967;28;20490;-65
2023/01/19 16:11:55;;;;;;;10.68;4.65;;;;;;;2.45;60.52;99039.47;10374372;28;20572;-66
2023/01/19 16:16:58;;;;;;;9.98;4.60;;;;;;;2.44;60.39;99040.38;10369954;28;20822;-66
2023/01/19 16:22:00;;;;;;;10.48;4.35;;;;;;;2.45;60.39;99049.81;10376176;28;20053;-66
2023/01/19 16:27:02;;;;;;;8.40;3.92;;;;;;;2.47;60.20;99055.75;10371233;28;20041;-66
2023/01/19 16:32:04;;;;;;;20.25;11.90;;;;;;;2.46;60.23;99054.03;10376625;28;20145;-66
2023/01/19 16:37:06;;;;;;;9.18;5.45;;;;;;;2.41;60.36;99066.31;10377636;28;20524;-66
2023/01/19 16:42:08;;;;;;;12.38;6.15;;;;;;;2.39;60.62;99068.13;10380552;28;20045;-65
2023/01/19 16:47:10;;;;;;;11.90;5.03;;;;;;;2.36;60.61;99064.81;10378483;28;20076;-66
2023/01/19 16:52:12;;;;;;;10.48;4.40;;;;;;;2.18;60.90;99061.22;10374832;28;20413;-65
2023/01/19 16:57:13;;;;;;;10.63;4.55;;;;;;;2.07;61.24;99076.28;10375283;28;20046;-65
2023/01/19 17:02:15;;;;;;;11.98;6.35;;;;;;;1.94;61.39;99077.66;10377269;28;20056;-66
2023/01/19 17:07:17;;;;;;;9.18;4.75;;;;;;;1.73;61.57;99075.88;10376815;28;20037;-66
2023/01/19 17:12:19;;;;;;;9.00;4.47;;;;;;;1.68;61.64;99077.81;10377981;28;20073;-66
2023/01/19 17:17:21;;;;;;;8.55;4.78;;;;;;;1.58;61.63;99076.47;10379066;28;20050;-65
2023/01/19 17:22:23;;;;;;;11.85;5.05;;;;;;;1.41;61.69;99081.38;10376134;28;20057;-66
2023/01/19 17:27:24;;;;;;;12.35;5.65;;;;;;;1.10;62.20;99090.22;10377558;28;20042;-65
2023/01/19 17:32:26;;;;;;;12.13;5.00;;;;;;;1.00;62.37;99098.31;10375729;28;20059;-65
2023/01/19 17:37:27;;;;;;;9.48;5.90;;;;;;;0.88;62.54;99109.88;10359963;28;20052;-66
2023/01/19 17:42:29;;;;;;;10.90;5.55;;;;;;;0.75;62.78;99108.56;10375212;28;20390;-66
2023/01/19 17:47:31;;;;;;;9.95;5.05;;;;;;;0.57;63.16;99114.34;10377720;28;20054;-65
2023/01/19 17:52:32;;;;;;;10.05;5.30;;;;;;;0.48;63.45;99114.66;10374991;28;20065;-66
2023/01/19 17:57:34;;;;;;;8.60;4.97;;;;;;;0.45;63.52;99119.88;10376941;28;20141;-66
2023/01/19 18:02:36;;;;;;;10.95;5.97;;;;;;;0.44;63.53;99124.16;10375556;28;20568;-66
2023/01/19 18:07:39;;;;;;;12.63;6.53;;;;;;;0.39;63.53;99130.34;10376293;28;20049;-66
2023/01/19 18:12:40;;;;;;;9.95;6.00;;;;;;;0.39;63.50;99138.06;10375591;28;20485;-66
2023/01/19 18:17:42;;;;;;;11.43;6.22;;;;;;;0.32;63.53;99140.00;10378005;28;20289;-66
2023/01/19 18:22:44;;;;;;;25.67;13.85;;;;;;;0.31;63.44;99145.19;10374774;28;20060;-66
2023/01/19 18:27:46;;;;;;;13.25;7.43;;;;;;;0.29;63.47;99146.97;10376151;28;20045;-66
2023/01/19 18:32:50;;;;;;;19.13;10.30;;;;;;;0.22;63.50;99141.16;10371830;28;20075;-66
2023/01/19 18:37:53;;;;;;;13.75;7.85;;;;;;;0.18;63.41;99144.72;10375658;28;20352;-66
2023/01/19 18:42:55;;;;;;;16.08;9.07;;;;;;;0.11;63.63;99139.81;10378311;28;20612;-66
2023/01/19 18:47:56;;;;;;;12.88;8.25;;;;;;;-0.03;63.83;99144.53;10372967;28;20045;-67
2023/01/19 18:52:58;;;;;;;15.98;8.95;;;;;;;-0.11;64.18;99143.91;10369550;28;20046;-66
2023/01/19 18:58:00;;;;;;;17.02;8.77;;;;;;;-0.14;64.10;99154.25;10376837;28;20045;-66
2023/01/19 19:03:02;;;;;;;14.50;9.77;;;;;;;-0.15;64.21;99158.59;10375582;28;20057;-66
2023/01/19 19:08:04;;;;;;;13.25;8.23;;;;;;;-0.13;64.19;99158.53;10376336;28;20049;-66
2023/01/19 19:13:07;;;;;;;11.93;7.75;;;;;;;-0.16;64.18;99158.59;10372308;28;20069;-67
2023/01/19 19:18:12;;;;;;;13.18;8.55;;;;;;;-0.20;64.30;99157.00;10375147;28;20409;-67
2023/01/19 19:23:13;;;;;;;14.68;7.82;;;;;;;-0.34;64.23;99163.41;10373442;28;20722;-68
2023/01/19 19:28:17;;;;;;;12.23;7.30;;;;;;;-0.49;64.81;99163.81;10372361;28;20490;-67
2023/01/19 19:33:18;;;;;;;13.32;7.80;;;;;;;-0.58;64.99;99166.66;10366211;28;20045;-68
2023/01/19 19:38:20;;;;;;;15.43;8.45;;;;;;;-0.71;65.13;99174.69;10371963;28;20057;-67
2023/01/19 19:43:25;;;;;;;13.10;7.95;;;;;;;-0.72;65.41;99173.03;10374433;28;20513;-66
2023/01/19 19:48:27;;;;;;;17.33;8.63;;;;;;;-0.74;65.33;99172.22;10369598;28;20405;-67
2023/01/19 19:53:29;;;;;;;15.70;10.30;;;;;;;-0.76;65.38;99177.38;10372806;28;20228;-66
2023/01/19 19:58:30;;;;;;;18.80;11.35;;;;;;;-0.76;65.17;99189.41;10376822;28;20055;-66
2023/01/19 20:03:32;;;;;;;13.55;7.80;;;;;;;-0.77;65.33;99182.56;10367741;28;20049;-66
2023/01/19 20:08:34;;;;;;;14.80;8.45;;;;;;;-0.82;65.41;99190.38;10375870;28;20053;-67
2023/01/19 20:13:37;;;;;;;14.80;8.80;;;;;;;-0.85;65.60;99189.63;10378356;28;20053;-66
2023/01/19 20:18:41;;;;;;;17.05;9.30;;;;;;;-0.93;65.62;99192.41;10380862;28;20049;-66
2023/01/19 20:23:43;;;;;;;18.42;9.43;;;;;;;-1.03;65.94;99190.94;10382300;28;20054;-67
2023/01/19 20:28:46;;;;;;;18.48;10.05;;;;;;;-1.06;66.09;99203.81;10414663;28;20042;-66
2023/01/19 20:33:49;;;;;;;18.63;9.90;;;;;;;-1.09;66.20;99211.63;10385946;28;20068;-67
2023/01/19 20:38:52;;;;;;;19.83;9.25;;;;;;;-1.16;66.40;99215.19;10382987;28;20461;-66
2023/01/19 20:43:54;;;;;;;15.50;8.85;;;;;;;-1.17;66.29;99216.09;10383539;28;20654;-66
2023/01/19 20:48:56;;;;;;;14.60;9.23;;;;;;;-1.22;66.32;99234.16;10380245;28;20049;-66
2023/01/19 20:53:58;;;;;;;16.92;10.00;;;;;;;-1.20;66.28;99234.09;10382530;28;20041;-66
2023/01/19 20:59:00;;;;;;;19.90;9.63;;;;;;;-1.35;66.18;99250.69;10382507;28;20054;-66
2023/01/19 21:04:02;;;;;;;14.00;7.90;;;;;;;-1.41;66.37;99258.53;10385515;28;20054;-66
2023/01/19 21:09:04;;;;;;;14.98;8.50;;;;;;;-1.40;66.27;99261.94;10380505;28;20524;-66
2023/01/19 21:14:06;;;;;;;14.48;8.63;;;;;;;-1.42;66.47;99258.56;10382323;28;21094;-66
2023/01/19 21:19:08;;;;;;;16.33;9.63;;;;;;;-1.46;66.61;99262.06;10381719;28;20303;-66
2023/01/19 21:24:09;;;;;;;17.23;11.88;;;;;;;-1.50;66.65;99266.44;10383645;28;20045;-67
2023/01/19 21:29:12;;;;;;;21.30;11.13;;;;;;;-1.54;66.77;99274.22;10383469;28;20852;-67
2023/01/19 21:34:14;;;;;;;18.45;11.35;;;;;;;-1.58;66.59;99277.72;10379496;28;20659;-66
2023/01/19 21:39:16;;;;;;;16.80;10.90;;;;;;;-1.62;66.91;99282.09;10363900;28;20042;-66
2023/01/19 21:44:17;;;;;;;16.27;10.50;;;;;;;-1.64;66.96;99288.13;10378902;28;20053;-66
2023/01/19 21:49:19;;;;;;;17.05;11.25;;;;;;;-1.63;67.06;99300.91;10379338;28;20490;-66
2023/01/19 21:54:21;;;;;;;16.30;10.70;;;;;;;-1.64;67.12;99301.78;10380265;28;20057;-66
2023/01/19 21:59:23;;;;;;;22.42;13.23;;;;;;;-1.69;66.94;99295.03;10381275;28;20061;-66
2023/01/19 22:04:24;;;;;;;18.38;11.35;;;;;;;-1.71;66.89;99301.91;10381598;28;20559;-66
2023/01/19 22:09:26;;;;;;;17.77;11.93;;;;;;;-1.74;66.95;99302.84;10379485;28;20049;-66
2023/01/19 22:14:28;;;;;;;22.98;12.05;;;;;;;-1.81;66.99;99315.78;10376587;28;20052;-66
2023/01/19 22:19:29;;;;;;;20.15;11.13;;;;;;;-1.78;67.28;99315.75;10378061;28;20044;-65
2023/01/19 22:24:31;;;;;;;18.60;11.27;;;;;;;-1.60;67.30;99313.66;10381240;28;20049;-66
2023/01/19 22:29:33;;;;;;;17.85;11.65;;;;;;;-1.36;67.08;99322.53;10379759;28;20619;-66
2023/01/19 22:34:35;;;;;;;18.75;11.77;;;;;;;-1.29;66.83;99321.56;10379358;28;20579;-66
2023/01/19 22:39:36;;;;;;;22.70;12.48;;;;;;;-1.16;66.82;99320.38;10378973;28;20049;-66
2023/01/19 22:44:38;;;;;;;20.80;12.48;;;;;;;-1.11;66.71;99330.56;10386739;28;20049;-66
2023/01/19 22:49:40;;;;;;;21.50;11.98;;;;;;;-1.16;66.23;99333.22;10379048;28;20053;-66
2023/01/19 22:54:41;;;;;;;20.30;11.98;;;;;;;-1.13;66.53;99325.47;10378245;28;20053;-66
2023/01/19 22:59:44;;;;;;;19.10;12.75;;;;;;;-0.98;66.40;99337.94;10380978;28;20061;-66
2023/01/19 23:04:45;;;;;;;19.08;11.85;;;;;;;-0.86;66.14;99335.09;10379948;28;20045;-67
2023/01/19 23:09:47;;;;;;;18.92;11.93;;;;;;;-0.70;66.08;99333.03;10377070;28;20056;-66
2023/01/19 23:14:49;;;;;;;19.02;11.85;;;;;;;-0.66;65.80;99335.47;10371855;28;20045;-67
2023/01/19 23:19:50;;;;;;;18.40;11.18;;;;;;;-0.68;65.42;99329.53;10373369;28;20040;-66
2023/01/19 23:24:52;;;;;;;22.00;12.00;;;;;;;-0.93;65.67;99337.84;10374727;28;20072;-66
2023/01/19 23:29:53;;;;;;;22.55;11.77;;;;;;;-0.96;65.79;99346.44;10378337;28;20061;-66
2023/01/19 23:34:55;;;;;;;19.15;11.02;;;;;;;-0.94;65.80;99352.38;10375031;28;20049;-66
2023/01/19 23:39:57;;;;;;;16.52;10.77;;;;;;;-1.09;65.73;99354.47;10374808;28;20669;-66